ROMMA est une association bénévole à but non lucratif. Votre soutien est indispensable : ADHERER à ROMMA ou FAIRE un DON

Peyrus - (26, Drôme)

Vercors Ouest (430 m)   Longitude: 05°06'28"E   Latitude: 44°54'41"N Station partenaire n°83
 

Détail journalier du     <<     >>

Température Precipitation Humidité Pression Vent Dir Rafale Dir. rafale Second capteur de température situé à 410 m
Heure (°C) (mm) (%) (hPa) (km/h) (km/h) (°C)
01:00 8.206010174N23NNO8.3
02:00 7.806110173N21N7.8
03:00 6.806510173N23NNE6.7
04:00 6.106910174NNE24NNE6.1
05:00 4.907310174NO23N5.0
06:00 3.807610173NO19NO3.9
07:00 3.207810173NNO13NO3.3
08:00 4.307610176N23N4.4
09:00 5.807410185N23NNO5.6
10:00 7.806710185N27N7.2
11:00 9.0062101813N32NNO8.3
12:00 10.4057101813N31N10.0
13:00 11.2054101714N34NNO11.1
14:00 11.5053101714N35N11.7
15:00 11.6054101713N37N12.2
16:00 11.6052101613N34NNO12.2
17:00 11.1050101615N35N11.7
18:00 10.2049101613N32N11.7
19:00 9.7048101611N35NNO10.0
20:00 8.904610168N34NE8.9
21:00 8.604610175NNO27N8.3
22:00 8.205010177NNO29NNE7.8
23:00 7.605110176N26NNO7.2
minuit 7.305010176N26N6.7

Graphique du 13-04-2019

 

Serveur OMMA